createdAt,value
2023-01-04T00:01:22.667Z,3.20
2023-01-04T00:02:54.424Z,2.72
2023-01-04T00:04:26.144Z,2.70
2023-01-04T00:05:58.179Z,2.45
2023-01-04T00:07:30.344Z,2.85
2023-01-04T00:09:02.004Z,2.58
2023-01-04T00:10:33.675Z,2.53
2023-01-04T00:12:05.825Z,2.65
2023-01-04T00:13:38.905Z,3.03
2023-01-04T00:15:11.243Z,2.53
2023-01-04T00:16:43.008Z,2.70
2023-01-04T00:18:14.833Z,2.72
2023-01-04T00:19:46.452Z,2.60
2023-01-04T00:21:19.821Z,2.70
2023-01-04T00:22:51.463Z,2.88
2023-01-04T00:24:23.361Z,2.78
2023-01-04T00:25:55.013Z,2.80
2023-01-04T00:27:26.647Z,3.47
2023-01-04T00:29:01.886Z,2.90
2023-01-04T00:30:33.572Z,2.90
2023-01-04T00:32:05.400Z,2.53
2023-01-04T00:33:37.864Z,2.60
2023-01-04T00:35:10.261Z,2.80
2023-01-04T00:36:42.278Z,3.38
2023-01-04T00:38:13.905Z,2.55
2023-01-04T00:39:45.571Z,2.85
2023-01-04T00:41:49.200Z,2.55
2023-01-04T00:43:08.839Z,2.85
2023-01-04T00:44:41.949Z,2.67
2023-01-04T00:46:13.711Z,3.03
2023-01-04T00:47:45.482Z,2.67
2023-01-04T00:49:17.103Z,2.80
2023-01-04T00:50:49.501Z,2.50
2023-01-04T00:52:21.196Z,3.13
2023-01-04T00:53:53.154Z,2.60
2023-01-04T00:55:24.805Z,3.33
2023-01-04T00:56:57.508Z,3.00
2023-01-04T00:58:29.246Z,3.25
2023-01-04T01:00:02.289Z,3.15
2023-01-04T01:01:34.990Z,3.00
2023-01-04T01:03:07.401Z,2.90
2023-01-04T01:04:39.350Z,2.80
2023-01-04T01:06:12.232Z,3.00
2023-01-04T01:07:43.939Z,2.90
2023-01-04T01:09:16.181Z,3.05
2023-01-04T01:10:47.865Z,2.88
2023-01-04T01:12:19.516Z,2.92
2023-01-04T01:13:52.221Z,2.78
2023-01-04T01:15:25.593Z,2.88
2023-01-04T01:16:58.702Z,2.83
2023-01-04T01:18:30.645Z,2.85
2023-01-04T01:20:04.277Z,3.40
2023-01-04T01:21:36.025Z,3.10
2023-01-04T01:23:07.716Z,3.22
2023-01-04T01:24:39.741Z,2.97
2023-01-04T01:26:13.950Z,3.28
2023-01-04T01:27:45.589Z,3.30
2023-01-04T01:29:17.548Z,2.95
2023-01-04T01:30:51.054Z,2.80
2023-01-04T01:32:22.756Z,2.78
2023-01-04T01:33:56.116Z,3.20
2023-01-04T01:35:27.758Z,3.08
2023-01-04T01:36:59.403Z,3.00
2023-01-04T01:38:31.247Z,3.50
2023-01-04T01:40:03.091Z,3.53
2023-01-04T01:41:35.620Z,2.65
2023-01-04T01:43:16.590Z,3.28
2023-01-04T01:45:11.101Z,2.83
2023-01-04T01:46:47.070Z,2.50
2023-01-04T01:48:23.388Z,2.65
2023-01-04T01:49:55.436Z,3.03
2023-01-04T01:51:28.889Z,2.80
2023-01-04T01:53:01.530Z,2.58
2023-01-04T01:54:35.777Z,2.72
2023-01-04T01:56:10.062Z,3.10
2023-01-04T01:57:42.088Z,2.85
2023-01-04T01:59:15.659Z,2.88
2023-01-04T02:00:47.497Z,2.53
2023-01-04T02:02:21.108Z,3.25
2023-01-04T02:03:53.496Z,2.80
2023-01-04T02:05:27.231Z,2.83
2023-01-04T02:06:59.670Z,2.60
2023-01-04T02:08:32.035Z,2.60
2023-01-04T02:10:04.343Z,3.53
2023-01-04T02:11:36.032Z,2.95
2023-01-04T02:13:12.273Z,3.00
2023-01-04T02:14:46.869Z,2.83
2023-01-04T02:16:27.329Z,2.90
2023-01-04T02:18:08.669Z,2.85
2023-01-04T02:20:00.356Z,2.95
2023-01-04T02:21:42.633Z,2.80
2023-01-04T02:23:39.712Z,2.80
2023-01-04T02:25:35.120Z,2.45
2023-01-04T02:27:44.696Z,2.70
2023-01-04T02:29:49.074Z,3.03
2023-01-04T02:31:32.534Z,3.00
2023-01-04T02:33:19.845Z,2.53
2023-01-04T02:34:59.939Z,2.60
2023-01-04T02:38:14.841Z,2.90
2023-01-04T02:41:32.110Z,2.85
2023-01-04T02:43:37.485Z,2.20
2023-01-04T02:45:09.543Z,2.05
2023-01-04T02:46:47.567Z,2.20
2023-01-04T02:48:37.969Z,2.08
2023-01-04T02:50:33.563Z,2.00
2023-01-04T02:52:05.250Z,2.05
2023-01-04T02:53:40.091Z,1.77
2023-01-04T02:55:11.857Z,1.40
2023-01-04T02:57:05.121Z,1.85
2023-01-04T02:58:53.979Z,1.42
2023-01-04T03:01:01.208Z,1.40
2023-01-04T03:03:14.770Z,1.67
2023-01-04T03:05:16.766Z,1.52
2023-01-04T03:06:56.994Z,1.80
2023-01-04T03:08:34.096Z,1.42
2023-01-04T03:10:09.347Z,1.50
2023-01-04T03:12:03.822Z,1.80
2023-01-04T03:13:40.173Z,1.70
2023-01-04T03:15:17.946Z,1.30
2023-01-04T03:16:51.714Z,1.60
2023-01-04T03:18:28.975Z,1.90
2023-01-04T03:20:01.137Z,1.48
2023-01-04T03:21:33.495Z,1.60
2023-01-04T03:23:26.869Z,1.50
2023-01-04T03:25:18.299Z,1.33
2023-01-04T03:27:28.466Z,1.35
2023-01-04T03:29:26.390Z,1.52
2023-01-04T03:31:22.896Z,1.55
2023-01-04T03:33:17.156Z,1.50
2023-01-04T03:35:09.455Z,1.40
2023-01-04T03:36:50.170Z,1.30
2023-01-04T03:38:46.786Z,1.38
2023-01-04T03:40:43.844Z,1.38
2023-01-04T03:42:41.403Z,1.40
2023-01-04T03:44:38.709Z,1.30
2023-01-04T03:46:34.462Z,1.38
2023-01-04T03:48:30.657Z,1.27
2023-01-04T03:50:07.909Z,1.30
2023-01-04T03:51:40.371Z,1.52
2023-01-04T03:53:13.796Z,1.20
2023-01-04T03:54:49.525Z,1.52
2023-01-04T03:56:23.894Z,1.40
2023-01-04T03:57:56.416Z,1.50
2023-01-04T03:59:29.764Z,1.27
2023-01-04T04:01:03.908Z,1.17
2023-01-04T04:02:36.437Z,1.50
2023-01-04T04:04:27.243Z,1.30
2023-01-04T04:06:18.761Z,1.10
2023-01-04T04:08:08.992Z,1.20
2023-01-04T04:11:30.468Z,1.30
2023-01-04T04:13:02.287Z,1.23
2023-01-04T04:14:34.172Z,1.25
2023-01-04T04:16:06.618Z,1.20
2023-01-04T04:17:38.346Z,1.35
2023-01-04T04:19:09.974Z,1.23
2023-01-04T04:20:41.670Z,1.20
2023-01-04T04:22:14.641Z,1.05
2023-01-04T04:23:46.407Z,1.45
2023-01-04T04:25:18.094Z,1.08
2023-01-04T04:26:50.105Z,1.30
2023-01-04T04:28:21.795Z,1.20
2023-01-04T04:29:53.463Z,1.10
2023-01-04T04:31:25.189Z,1.30
2023-01-04T04:32:56.914Z,1.10
2023-01-04T04:34:28.548Z,1.10
2023-01-04T04:36:00.358Z,1.17
2023-01-04T04:37:34.206Z,1.10
2023-01-04T04:39:06.210Z,1.00
2023-01-04T04:40:57.160Z,1.02
2023-01-04T04:42:28.938Z,0.93
2023-01-04T04:44:00.726Z,1.23
2023-01-04T04:45:32.349Z,1.10
2023-01-04T04:47:04.105Z,1.10
2023-01-04T04:48:35.703Z,1.30
2023-01-04T04:50:08.472Z,0.85
2023-01-04T04:51:40.962Z,1.02
2023-01-04T04:53:13.983Z,1.08
2023-01-04T04:54:45.603Z,1.02
2023-01-04T04:56:17.376Z,1.00
2023-01-04T04:57:49.043Z,1.02
2023-01-04T04:59:20.672Z,1.00
2023-01-04T05:00:52.349Z,1.00
2023-01-04T05:02:24.142Z,1.17
2023-01-04T05:03:56.399Z,1.15
2023-01-04T05:05:28.481Z,1.02
2023-01-04T05:07:00.141Z,1.23
2023-01-04T05:08:33.762Z,1.58
2023-01-04T05:10:06.366Z,1.13
2023-01-04T05:11:56.658Z,1.10
2023-01-04T05:13:28.282Z,1.40
2023-01-04T05:14:59.946Z,1.10
2023-01-04T05:16:31.619Z,0.90
2023-01-04T05:18:05.181Z,1.42
2023-01-04T05:19:36.871Z,1.10
2023-01-04T05:21:08.549Z,1.15
2023-01-04T05:22:40.939Z,1.05
2023-01-04T05:24:14.159Z,1.20
2023-01-04T05:25:46.093Z,1.10
2023-01-04T05:27:17.744Z,1.10
2023-01-04T05:28:53.647Z,0.95
2023-01-04T05:30:44.979Z,1.17
2023-01-04T05:32:16.683Z,1.10
2023-01-04T05:33:48.410Z,1.70
2023-01-04T05:35:20.084Z,1.20
2023-01-04T05:36:51.692Z,1.08
2023-01-04T05:38:24.124Z,1.20
2023-01-04T05:39:57.143Z,1.13
2023-01-04T05:41:47.336Z,1.25
2023-01-04T05:43:20.468Z,1.20
2023-01-04T05:44:52.199Z,1.30
2023-01-04T05:46:24.011Z,1.17
2023-01-04T05:47:55.814Z,1.00
2023-01-04T05:49:27.465Z,0.98
2023-01-04T05:50:59.108Z,1.20
2023-01-04T05:52:31.089Z,1.15
2023-01-04T05:54:02.731Z,1.15
2023-01-04T05:55:35.832Z,1.10
2023-01-04T05:57:08.162Z,1.30
2023-01-04T05:58:39.793Z,0.90
2023-01-04T06:00:13.136Z,1.10
2023-01-04T06:01:44.851Z,1.20
2023-01-04T06:03:16.817Z,1.00
2023-01-04T06:04:54.684Z,1.38
2023-01-04T06:06:30.018Z,1.10
2023-01-04T06:08:01.684Z,1.00
2023-01-04T06:09:33.363Z,1.15
2023-01-04T06:11:06.428Z,1.27
2023-01-04T06:12:38.543Z,1.30
2023-01-04T06:14:10.349Z,1.02
2023-01-04T06:15:43.394Z,1.40
2023-01-04T06:17:15.352Z,1.02
2023-01-04T06:18:47.090Z,1.42
2023-01-04T06:20:18.855Z,1.10
2023-01-04T06:21:50.721Z,1.13
2023-01-04T06:23:22.325Z,1.13
2023-01-04T06:24:54.007Z,1.63
2023-01-04T06:26:26.993Z,1.30
2023-01-04T06:27:58.608Z,1.20
2023-01-04T06:29:30.321Z,1.23
2023-01-04T06:31:04.504Z,1.13
2023-01-04T06:32:36.552Z,1.30
2023-01-04T06:34:10.930Z,1.20
2023-01-04T06:35:42.576Z,1.20
2023-01-04T06:37:14.208Z,2.00
2023-01-04T06:38:45.848Z,1.25
2023-01-04T06:40:17.557Z,1.20
2023-01-04T06:41:50.636Z,1.30
2023-01-04T06:43:22.672Z,1.25
2023-01-04T06:44:54.580Z,1.30
2023-01-04T06:46:26.790Z,1.40
2023-01-04T06:47:58.494Z,1.30
2023-01-04T06:49:30.188Z,1.33
2023-01-04T06:51:01.901Z,0.90
2023-01-04T06:52:33.621Z,1.20
2023-01-04T06:54:05.749Z,1.40
2023-01-04T06:55:37.476Z,1.20
2023-01-04T06:57:10.498Z,1.48
2023-01-04T06:58:42.184Z,1.25
2023-01-04T07:00:15.030Z,1.98
2023-01-04T07:01:46.739Z,1.17
2023-01-04T07:03:18.897Z,1.33
2023-01-04T07:04:50.705Z,1.40
2023-01-04T07:06:22.439Z,1.35
2023-01-04T07:07:54.079Z,1.52
2023-01-04T07:09:25.782Z,1.90
2023-01-04T07:10:57.737Z,1.33
2023-01-04T07:12:30.776Z,1.40
2023-01-04T07:14:02.393Z,1.50
2023-01-04T07:15:38.849Z,1.02
2023-01-04T07:17:15.086Z,1.50
2023-01-04T07:18:46.827Z,1.20
2023-01-04T07:20:18.510Z,1.23
2023-01-04T07:21:51.095Z,1.20
2023-01-04T07:23:22.784Z,1.40
2023-01-04T07:24:54.405Z,1.35
2023-01-04T07:26:26.079Z,1.20
2023-01-04T07:27:59.144Z,1.15
2023-01-04T07:29:30.843Z,1.30
2023-01-04T07:31:06.725Z,1.38
2023-01-04T07:32:38.501Z,1.20
2023-01-04T07:34:10.329Z,1.30
2023-01-04T07:35:42.029Z,1.40
2023-01-04T07:37:15.355Z,1.40
2023-01-04T07:38:47.106Z,1.20
2023-01-04T07:40:19.049Z,1.23
2023-01-04T07:41:51.472Z,1.13
2023-01-04T07:43:28.423Z,1.20
2023-01-04T07:45:00.448Z,1.10
2023-01-04T07:46:32.224Z,1.15
2023-01-04T07:48:04.084Z,1.23
2023-01-04T07:49:35.728Z,1.63
2023-01-04T07:51:07.370Z,1.25
2023-01-04T07:52:41.382Z,1.25
2023-01-04T07:54:13.253Z,1.52
2023-01-04T07:55:44.955Z,1.25
2023-01-04T07:57:16.586Z,1.10
2023-01-04T07:58:49.694Z,1.17
2023-01-04T08:00:21.486Z,1.20
2023-01-04T08:01:53.336Z,1.20
2023-01-04T08:03:25.201Z,1.27
2023-01-04T08:04:57.049Z,1.20
2023-01-04T08:06:28.756Z,1.52
2023-01-04T08:08:01.416Z,1.25
2023-01-04T08:09:33.193Z,1.25
2023-01-04T08:11:07.328Z,1.20
2023-01-04T08:12:39.071Z,1.30
2023-01-04T08:14:12.397Z,1.38
2023-01-04T08:15:44.087Z,1.45
2023-01-04T08:17:15.753Z,1.48
2023-01-04T08:18:47.543Z,1.58
2023-01-04T08:20:19.315Z,1.25
2023-01-04T08:21:50.977Z,1.73
2023-01-04T08:23:22.655Z,1.10
2023-01-04T08:24:54.322Z,1.40
2023-01-04T08:26:26.445Z,1.38
2023-01-04T08:27:58.052Z,1.45
2023-01-04T08:29:34.789Z,1.20
2023-01-04T08:31:09.488Z,1.30
2023-01-04T08:32:41.237Z,1.23
2023-01-04T08:34:13.111Z,1.30
2023-01-04T08:35:44.733Z,1.35
2023-01-04T08:37:16.517Z,1.70
2023-01-04T08:39:00.111Z,1.45
2023-01-04T08:41:00.018Z,1.10
2023-01-04T08:42:30.590Z,1.33
2023-01-04T08:44:03.062Z,1.00
2023-01-04T08:45:36.087Z,1.13
2023-01-04T08:47:07.832Z,1.70
2023-01-04T08:48:40.335Z,1.90
2023-01-04T08:50:12.142Z,1.38
2023-01-04T08:51:44.357Z,1.38
2023-01-04T08:53:16.027Z,1.30
2023-01-04T08:54:48.907Z,1.60
2023-01-04T08:56:20.526Z,1.70
2023-01-04T08:57:52.252Z,1.42
2023-01-04T08:59:24.008Z,1.27
2023-01-04T09:01:02.722Z,1.45
2023-01-04T09:02:34.525Z,1.50
2023-01-04T09:04:06.783Z,1.42
2023-01-04T09:05:39.334Z,1.27
2023-01-04T09:07:11.022Z,1.25
2023-01-04T09:08:44.044Z,1.30
2023-01-04T09:10:16.486Z,1.60
2023-01-04T09:11:48.299Z,1.73
2023-01-04T09:13:19.938Z,1.35
2023-01-04T09:14:51.596Z,1.30
2023-01-04T09:16:24.910Z,1.50
2023-01-04T09:18:30.508Z,1.58
2023-01-04T09:19:48.284Z,1.60
2023-01-04T09:21:21.775Z,1.38
2023-01-04T09:22:53.460Z,1.15
2023-01-04T09:24:25.491Z,1.40
2023-01-04T09:25:57.222Z,1.20
2023-01-04T09:27:31.258Z,2.17
2023-01-04T09:29:04.184Z,1.80
2023-01-04T09:30:36.174Z,1.70
2023-01-04T09:32:14.635Z,1.50
2023-01-04T09:34:13.381Z,1.65
2023-01-04T09:35:41.725Z,1.13
2023-01-04T09:37:13.515Z,1.10
2023-01-04T09:38:45.676Z,1.45
2023-01-04T09:40:22.631Z,1.80
2023-01-04T09:41:57.909Z,1.40
2023-01-04T09:43:37.776Z,1.55
2023-01-04T09:45:25.665Z,1.42
2023-01-04T09:47:02.849Z,1.23
2023-01-04T09:48:41.423Z,1.23
2023-01-04T09:50:18.729Z,1.38
2023-01-04T09:51:58.060Z,1.38
2023-01-04T09:53:33.646Z,1.30
2023-01-04T09:55:37.645Z,1.23
2023-01-04T09:57:02.984Z,1.48
2023-01-04T09:58:36.588Z,1.30
2023-01-04T10:00:16.176Z,1.48
2023-01-04T10:01:53.817Z,1.40
2023-01-04T10:03:29.899Z,2.00
2023-01-04T10:05:05.440Z,1.38
2023-01-04T10:06:37.502Z,1.85
2023-01-04T10:08:15.389Z,1.55
2023-01-04T10:09:47.075Z,1.67
2023-01-04T10:11:37.506Z,1.95
2023-01-04T10:13:17.959Z,1.67
2023-01-04T10:15:05.554Z,1.73
2023-01-04T10:21:32.174Z,1.50
2023-01-04T10:23:11.653Z,1.27
2023-01-04T10:24:55.025Z,1.30
2023-01-04T10:26:34.749Z,1.60
2023-01-04T10:28:41.315Z,1.38
2023-01-04T10:30:29.651Z,1.40
2023-01-04T10:32:06.002Z,1.65
2023-01-04T10:33:45.990Z,1.42
2023-01-04T10:35:21.703Z,1.50
2023-01-04T10:36:59.060Z,1.40
2023-01-04T10:38:36.466Z,1.77
2023-01-04T10:40:14.896Z,1.70
2023-01-04T10:41:53.676Z,1.58
2023-01-04T10:44:10.913Z,1.70
2023-01-04T10:45:35.921Z,1.90
2023-01-04T10:47:11.681Z,2.00
2023-01-04T10:48:49.416Z,1.70
2023-01-04T10:50:28.964Z,2.15
2023-01-04T10:52:06.812Z,1.95
2023-01-04T10:53:46.642Z,1.98
2023-01-04T10:55:27.224Z,1.55
2023-01-04T10:57:06.827Z,1.73
2023-01-04T10:58:43.921Z,2.00
2023-01-04T11:00:20.080Z,1.92
2023-01-04T11:01:57.251Z,1.80
2023-01-04T11:03:35.042Z,1.67
2023-01-04T11:05:16.077Z,2.00
2023-01-04T11:06:53.350Z,2.45
2023-01-04T11:08:34.075Z,1.65
2023-01-04T11:10:12.990Z,1.73
2023-01-04T11:11:46.624Z,1.70
2023-01-04T11:13:18.433Z,1.92
2023-01-04T11:14:52.098Z,2.03
2023-01-04T11:16:24.110Z,2.05
2023-01-04T11:17:56.943Z,1.58
2023-01-04T11:19:29.758Z,1.85
2023-01-04T11:21:06.172Z,1.73
2023-01-04T11:22:41.597Z,1.90
2023-01-04T11:24:32.120Z,1.67
2023-01-04T11:26:10.090Z,1.70
2023-01-04T11:27:46.273Z,1.42
2023-01-04T11:29:29.782Z,1.90
2023-01-04T11:31:12.049Z,1.88
2023-01-04T11:32:49.783Z,1.92
2023-01-04T11:34:49.087Z,1.80
2023-01-04T11:36:35.855Z,1.83
2023-01-04T11:38:12.381Z,1.80
2023-01-04T11:39:44.375Z,1.73
2023-01-04T11:41:16.641Z,1.67
2023-01-04T11:42:50.233Z,1.77
2023-01-04T11:44:22.949Z,1.70
2023-01-04T11:45:57.614Z,1.83
2023-01-04T11:47:32.951Z,1.65
2023-01-04T11:49:08.733Z,1.65
2023-01-04T11:50:44.215Z,1.60
2023-01-04T11:52:29.503Z,1.88
2023-01-04T11:54:03.116Z,1.50
2023-01-04T11:55:34.964Z,1.48
2023-01-04T11:57:17.481Z,1.60
2023-01-04T11:59:04.779Z,1.60
2023-01-04T12:00:36.581Z,2.05
2023-01-04T12:02:50.600Z,2.00
2023-01-04T12:04:15.216Z,1.70
2023-01-04T12:05:48.397Z,1.83
2023-01-04T12:07:30.227Z,1.75
2023-01-04T12:09:02.590Z,1.80
2023-01-04T12:10:35.397Z,1.50
2023-01-04T12:12:12.361Z,1.60
2023-01-04T12:13:47.712Z,1.45
2023-01-04T12:15:28.069Z,2.03
2023-01-04T12:17:05.436Z,1.83
2023-01-04T12:18:39.440Z,2.10
2023-01-04T12:20:19.082Z,1.70
2023-01-04T12:21:55.810Z,1.70
2023-01-04T12:23:27.800Z,1.38
2023-01-04T12:25:01.396Z,1.70
2023-01-04T12:26:33.561Z,1.75
2023-01-04T12:28:05.959Z,1.63
2023-01-04T12:29:55.632Z,1.55
2023-01-04T12:31:30.406Z,1.15
2023-01-04T12:33:38.235Z,1.98
2023-01-04T12:36:02.600Z,1.30
2023-01-04T12:37:49.471Z,1.48
2023-01-04T12:39:39.008Z,1.15
2023-01-04T12:41:10.759Z,1.73
2023-01-04T12:43:22.597Z,1.38
2023-01-04T12:44:59.268Z,1.40
2023-01-04T12:47:00.053Z,1.20
2023-01-04T12:48:53.515Z,1.50
2023-01-04T12:50:30.199Z,1.60
2023-01-04T12:52:54.731Z,1.38
2023-01-04T12:54:45.424Z,1.15
2023-01-04T12:56:17.308Z,1.55
2023-01-04T12:57:49.068Z,1.05
2023-01-04T12:59:32.299Z,1.00
2023-01-04T13:01:23.798Z,1.33
2023-01-04T13:03:28.277Z,1.60
2023-01-04T13:06:53.761Z,1.23
2023-01-04T13:08:25.647Z,1.30
2023-01-04T13:10:01.354Z,1.20
2023-01-04T13:11:58.633Z,1.40
2023-01-04T13:13:37.044Z,1.10
2023-01-04T13:15:19.751Z,1.27
2023-01-04T13:17:08.755Z,2.63
2023-01-04T13:18:42.754Z,1.10
2023-01-04T13:20:17.940Z,1.35
2023-01-04T13:21:52.154Z,1.55
2023-01-04T13:23:26.862Z,1.60
2023-01-04T13:25:03.023Z,1.33
2023-01-04T13:26:38.671Z,1.17
2023-01-04T13:28:17.670Z,1.45
2023-01-04T13:29:50.819Z,1.52
2023-01-04T13:31:22.600Z,1.10
2023-01-04T13:33:24.923Z,1.50
2023-01-04T13:34:52.368Z,1.33
2023-01-04T13:36:24.493Z,1.40
2023-01-04T13:37:56.283Z,1.50
2023-01-04T13:39:28.518Z,1.55
2023-01-04T13:41:03.494Z,1.23
2023-01-04T13:42:39.188Z,1.48
2023-01-04T13:44:19.413Z,1.25
2023-01-04T13:46:22.794Z,1.70
2023-01-04T13:47:57.433Z,1.08
2023-01-04T13:49:29.518Z,1.35
2023-01-04T13:51:03.880Z,1.55
2023-01-04T13:52:53.052Z,1.88
2023-01-04T13:54:31.679Z,1.48
2023-01-04T13:56:19.292Z,1.73
2023-01-04T13:57:55.298Z,1.60
2023-01-04T13:59:27.084Z,1.40
2023-01-04T14:01:01.465Z,1.33
2023-01-04T14:02:36.142Z,2.20
2023-01-04T14:04:16.409Z,1.30
2023-01-04T14:05:50.787Z,1.35
2023-01-04T14:07:23.643Z,1.80
2023-01-04T14:09:14.231Z,1.40
2023-01-04T14:10:46.048Z,1.70
2023-01-04T14:12:22.278Z,1.88
2023-01-04T14:13:54.033Z,1.45
2023-01-04T14:15:26.168Z,0.95
2023-01-04T14:17:17.345Z,1.05
2023-01-04T14:18:49.076Z,1.23
2023-01-04T14:20:36.162Z,1.00
2023-01-04T14:22:26.134Z,0.98
2023-01-04T14:23:57.767Z,1.00
2023-01-04T14:25:41.876Z,1.10
2023-01-04T14:27:36.694Z,1.30
2023-01-04T14:29:21.784Z,1.10
2023-01-04T14:30:55.538Z,1.10
2023-01-04T14:32:27.704Z,1.13
2023-01-04T14:34:04.274Z,1.20
2023-01-04T14:35:38.385Z,1.30
2023-01-04T14:37:13.875Z,1.70
2023-01-04T14:38:53.765Z,1.30
2023-01-04T14:40:28.248Z,1.40
2023-01-04T14:42:01.470Z,1.20
2023-01-04T14:43:36.723Z,1.23
2023-01-04T14:45:13.406Z,1.73
2023-01-04T14:46:48.160Z,1.30
2023-01-04T14:48:23.904Z,1.38
2023-01-04T14:49:55.904Z,1.38
2023-01-04T14:51:33.399Z,1.20
2023-01-04T14:53:05.164Z,1.60
2023-01-04T14:54:39.046Z,1.80
2023-01-04T14:56:13.235Z,1.38
2023-01-04T14:57:45.705Z,1.40
2023-01-04T14:59:19.148Z,1.80
2023-01-04T15:00:50.808Z,1.70
2023-01-04T15:02:23.931Z,1.83
2023-01-04T15:03:57.085Z,1.63
2023-01-04T15:05:31.656Z,1.73
2023-01-04T15:07:06.140Z,1.58
2023-01-04T15:08:37.976Z,1.67
2023-01-04T15:10:20.941Z,1.40
2023-01-04T15:11:52.590Z,1.73
2023-01-04T15:13:24.332Z,1.65
2023-01-04T15:14:57.433Z,1.63
2023-01-04T15:16:29.109Z,1.88
2023-01-04T15:18:00.848Z,2.10
2023-01-04T15:19:37.553Z,1.73
2023-01-04T15:21:10.942Z,1.80
2023-01-04T15:22:42.656Z,2.00
2023-01-04T15:24:14.320Z,2.05
2023-01-04T15:25:46.013Z,2.00
2023-01-04T15:27:17.700Z,1.90
2023-01-04T15:28:49.333Z,2.00
2023-01-04T15:30:22.592Z,2.00
2023-01-04T15:31:54.353Z,1.90
2023-01-04T15:33:31.954Z,2.17
2023-01-04T15:35:05.649Z,2.15
2023-01-04T15:36:40.362Z,1.90
2023-01-04T15:38:18.203Z,1.60
2023-01-04T15:39:55.301Z,1.65
2023-01-04T15:41:48.723Z,1.90
2023-01-04T15:43:20.419Z,1.88
2023-01-04T15:44:52.065Z,2.58
2023-01-04T15:46:25.150Z,1.80
2023-01-04T15:48:02.888Z,2.00
2023-01-04T15:49:34.588Z,2.00
2023-01-04T15:51:09.667Z,2.30
2023-01-04T15:52:41.341Z,1.90
2023-01-04T15:54:13.201Z,2.20
2023-01-04T15:55:44.943Z,2.20
2023-01-04T15:57:16.736Z,2.30
2023-01-04T15:58:51.892Z,1.95
2023-01-04T16:00:23.680Z,2.28
2023-01-04T16:01:57.551Z,1.80
2023-01-04T16:03:29.296Z,2.13
2023-01-04T16:05:00.938Z,2.05
2023-01-04T16:06:32.603Z,1.90
2023-01-04T16:08:04.665Z,1.90
2023-01-04T16:09:37.772Z,1.70
2023-01-04T16:11:12.158Z,1.83
2023-01-04T16:12:44.595Z,2.10
2023-01-04T16:14:16.295Z,2.00
2023-01-04T16:15:48.065Z,2.05
2023-01-04T16:17:21.135Z,2.03
2023-01-04T16:18:54.698Z,1.95
2023-01-04T16:20:27.866Z,1.85
2023-01-04T16:21:59.669Z,1.65
2023-01-04T16:23:31.383Z,1.88
2023-01-04T16:25:11.937Z,1.73
2023-01-04T16:26:43.982Z,1.98
2023-01-04T16:28:15.707Z,1.80
2023-01-04T16:29:50.289Z,2.15
2023-01-04T16:31:22.869Z,2.28
2023-01-04T16:32:56.230Z,2.30
2023-01-04T16:34:27.853Z,2.63
2023-01-04T16:36:00.632Z,2.47
2023-01-04T16:37:32.343Z,2.25
2023-01-04T16:39:04.437Z,2.17
2023-01-04T16:40:36.085Z,2.40
2023-01-04T16:42:10.961Z,2.22
2023-01-04T16:43:44.882Z,2.70
2023-01-04T16:45:17.487Z,2.75
2023-01-04T16:46:49.234Z,2.50
2023-01-04T16:48:22.266Z,2.40
2023-01-04T16:49:54.090Z,2.95
2023-01-04T16:51:28.092Z,2.58
2023-01-04T16:52:59.788Z,2.60
2023-01-04T16:54:31.568Z,3.00
2023-01-04T16:56:03.537Z,2.75
2023-01-04T16:57:35.268Z,2.72
2023-01-04T16:59:08.165Z,2.58
2023-01-04T17:00:39.847Z,2.60
2023-01-04T17:02:12.328Z,2.47
2023-01-04T17:03:47.635Z,2.58
2023-01-04T17:05:19.399Z,2.40
2023-01-04T17:06:54.694Z,2.35
2023-01-04T17:08:27.296Z,2.55
2023-01-04T17:10:01.012Z,2.33
2023-01-04T17:13:26.612Z,2.22
2023-01-04T17:15:40.804Z,2.35
2023-01-04T17:16:50.196Z,2.42
2023-01-04T17:18:22.523Z,2.60
2023-01-04T17:19:55.740Z,2.58
2023-01-04T17:21:34.139Z,2.38
2023-01-04T17:23:07.866Z,2.33
2023-01-04T17:24:39.613Z,2.38
2023-01-04T17:26:13.859Z,2.30
2023-01-04T17:27:45.741Z,2.63
2023-01-04T17:29:17.463Z,2.85
2023-01-04T17:30:49.142Z,3.05
2023-01-04T17:32:21.067Z,2.80
2023-01-04T17:33:54.368Z,3.00
2023-01-04T17:35:27.417Z,3.53
2023-01-04T17:36:59.117Z,3.15
2023-01-04T17:38:32.447Z,2.90
2023-01-04T17:40:04.835Z,2.85
2023-01-04T17:41:36.851Z,2.70
2023-01-04T17:43:09.199Z,2.70
2023-01-04T17:44:40.858Z,2.95
2023-01-04T17:46:22.608Z,3.00
2023-01-04T17:47:55.021Z,3.22
2023-01-04T17:49:31.425Z,3.50
2023-01-04T17:51:10.891Z,3.55
2023-01-04T17:52:42.570Z,3.22
2023-01-04T17:54:14.393Z,3.67
2023-01-04T17:55:46.190Z,3.47
2023-01-04T17:57:17.881Z,3.90
2023-01-04T17:58:50.137Z,3.47
2023-01-04T18:00:22.130Z,3.88
2023-01-04T18:01:56.706Z,3.85
2023-01-04T18:03:28.555Z,4.03
2023-01-04T18:05:00.728Z,4.22
2023-01-04T18:06:38.578Z,5.30
2023-01-04T18:08:10.263Z,4.07
2023-01-04T18:09:41.975Z,4.30
2023-01-04T18:11:14.617Z,4.50
2023-01-04T18:12:46.281Z,4.28
2023-01-04T18:14:18.042Z,3.95
2023-01-04T18:16:18.226Z,4.20
2023-01-04T18:17:41.328Z,4.25
2023-01-04T18:19:12.988Z,4.13
2023-01-04T18:20:49.245Z,3.85
2023-01-04T18:22:22.740Z,3.83
2023-01-04T18:24:34.180Z,3.78
2023-01-04T18:25:46.576Z,3.78
2023-01-04T18:27:26.580Z,4.40
2023-01-04T18:28:58.767Z,4.40
2023-01-04T18:30:30.457Z,4.38
2023-01-04T18:32:02.397Z,4.63
2023-01-04T18:33:34.199Z,4.50
2023-01-04T18:35:07.250Z,4.25
2023-01-04T18:36:42.491Z,3.85
2023-01-04T18:38:15.800Z,4.28
2023-01-04T18:39:47.940Z,4.65
2023-01-04T18:41:20.135Z,4.10
2023-01-04T18:42:51.808Z,5.35
2023-01-04T18:44:34.052Z,5.03
2023-01-04T18:46:08.996Z,4.75
2023-01-04T18:47:40.833Z,4.43
2023-01-04T18:49:12.556Z,5.20
2023-01-04T18:50:44.259Z,5.28
2023-01-04T18:52:16.681Z,4.47
2023-01-04T18:53:50.434Z,5.05
2023-01-04T18:55:22.333Z,4.80
2023-01-04T18:57:00.330Z,4.47
2023-01-04T18:58:33.280Z,4.90
2023-01-04T19:00:08.548Z,4.95
2023-01-04T19:01:40.280Z,4.80
2023-01-04T19:03:17.984Z,4.50
2023-01-04T19:04:50.343Z,4.60
2023-01-04T19:06:22.809Z,4.95
2023-01-04T19:07:54.647Z,5.43
2023-01-04T19:09:28.316Z,4.78
2023-01-04T19:11:00.154Z,4.82
2023-01-04T19:12:31.906Z,4.75
2023-01-04T19:14:04.141Z,5.30
2023-01-04T19:15:36.143Z,4.50
2023-01-04T19:17:08.522Z,5.03
2023-01-04T19:18:40.942Z,4.72
2023-01-04T19:20:12.707Z,6.57
2023-01-04T19:21:44.792Z,5.57
2023-01-04T19:23:16.580Z,5.18
2023-01-04T19:24:49.573Z,5.20
2023-01-04T19:26:21.988Z,5.22
2023-01-04T19:27:53.753Z,5.03
2023-01-04T19:29:25.412Z,5.18
2023-01-04T19:30:58.273Z,4.85
2023-01-04T19:32:33.481Z,4.80
2023-01-04T19:34:08.623Z,4.93
2023-01-04T19:35:41.856Z,5.10
2023-01-04T19:37:13.570Z,6.43
2023-01-04T19:38:45.797Z,5.10
2023-01-04T19:40:19.081Z,5.18
2023-01-04T19:41:50.807Z,5.90
2023-01-04T19:43:22.548Z,5.10
2023-01-04T19:44:54.299Z,5.68
2023-01-04T19:46:25.988Z,5.80
2023-01-04T19:47:57.730Z,4.75
2023-01-04T19:49:29.479Z,5.35
2023-01-04T19:51:05.958Z,5.45
2023-01-04T19:52:38.657Z,4.93
2023-01-04T19:54:10.511Z,4.78
2023-01-04T19:55:43.581Z,4.63
2023-01-04T19:57:15.227Z,4.97
2023-01-04T19:58:47.186Z,5.32
2023-01-04T20:00:19.173Z,4.90
2023-01-04T20:01:50.962Z,5.03
2023-01-04T20:03:23.572Z,5.22
2023-01-04T20:04:55.377Z,4.63
2023-01-04T20:06:27.343Z,4.55
2023-01-04T20:08:00.342Z,4.82
2023-01-04T20:09:34.370Z,4.80
2023-01-04T20:11:08.486Z,4.53
2023-01-04T20:12:40.206Z,5.13
2023-01-04T20:14:11.873Z,5.10
2023-01-04T20:15:43.548Z,5.15
2023-01-04T20:17:15.330Z,5.10
2023-01-04T20:18:47.030Z,5.45
2023-01-04T20:20:19.273Z,5.88
2023-01-04T20:21:52.143Z,4.68
2023-01-04T20:23:24.063Z,5.10
2023-01-04T20:24:55.779Z,5.90
2023-01-04T20:26:29.234Z,4.82
2023-01-04T20:28:00.919Z,5.32
2023-01-04T20:29:33.315Z,4.82
2023-01-04T20:31:06.720Z,5.70
2023-01-04T20:32:38.862Z,5.30
2023-01-04T20:34:10.766Z,5.20
2023-01-04T20:35:44.209Z,5.15
2023-01-04T20:37:15.884Z,5.22
2023-01-04T20:38:48.337Z,6.30
2023-01-04T20:40:20.304Z,6.03
2023-01-04T20:42:11.830Z,5.78
2023-01-04T20:43:44.766Z,6.35
2023-01-04T20:45:16.513Z,5.38
2023-01-04T20:46:48.490Z,5.30
2023-01-04T20:48:20.226Z,5.25
2023-01-04T20:49:52.093Z,5.22
2023-01-04T20:51:25.965Z,5.32
2023-01-04T20:52:57.616Z,5.05
2023-01-04T20:54:29.355Z,5.72
2023-01-04T20:56:04.771Z,5.13
2023-01-04T20:57:37.863Z,5.30
2023-01-04T20:59:09.556Z,5.43
2023-01-04T21:00:42.190Z,5.57
2023-01-04T21:02:14.208Z,4.82
2023-01-04T21:03:46.045Z,10.00
2023-01-04T21:05:18.507Z,5.13
2023-01-04T21:06:50.153Z,4.72
2023-01-04T21:08:21.802Z,5.63
2023-01-04T21:09:53.450Z,4.75
2023-01-04T21:11:25.391Z,4.72
2023-01-04T21:12:58.447Z,5.28
2023-01-04T21:14:31.944Z,4.82
2023-01-04T21:16:04.256Z,4.85
2023-01-04T21:17:36.972Z,4.97
2023-01-04T21:19:08.919Z,4.45
2023-01-04T21:20:41.527Z,4.95
2023-01-04T21:22:13.474Z,5.03
2023-01-04T21:23:46.391Z,5.50
2023-01-04T21:25:18.202Z,4.63
2023-01-04T21:26:49.853Z,5.28
2023-01-04T21:28:22.975Z,5.15